Time;durP1;ratioP1;P1;durP2;ratioP2;P2;SDS_P1;SDS_P2;PMS_P1;PMS_P2;Temp;Humidity;BMP_temperature;BMP_pressure;BME280_temperature;BME280_humidity;BME280_pressure;Samples;Min_cycle;Max_cycle;Signal;HPM_P1;HPM_P2
2023/03/22 00:00:23;;;;;;;;;;;;;;;14.46;54.40;96969.94;4987660;28;19925;-76
2023/03/22 00:02:49;;;;;;;;;;;;;;;14.45;54.48;96962.38;4985559;28;20289;-76
2023/03/22 00:05:14;;;;;;;;;;;;;;;14.46;54.25;96956.81;4986345;28;19922;-75
2023/03/22 00:07:40;;;;;;;;;;;;;;;14.54;53.90;96958.88;4962031;28;20432;-76
2023/03/22 00:10:05;;;;;;;;;;;;;;;14.54;54.04;96958.09;4997179;28;20181;-76
2023/03/22 00:12:30;;;;;;;;;;;;;;;14.45;54.42;96949.28;4957709;28;19921;-76
2023/03/22 00:14:56;;;;;;;;;;;;;;;14.47;54.25;96949.78;4990201;28;19932;-76
2023/03/22 00:17:21;;;;;;;;;;;;;;;14.42;54.43;96943.50;4988932;28;19932;-76
2023/03/22 00:19:48;;;;;;;;;;;;;;;14.38;54.45;96942.50;4985305;28;19926;-77
2023/03/22 00:22:15;;;;;;;;;;;;;;;14.46;54.17;96943.72;4972558;28;19922;-76
2023/03/22 00:24:40;;;;;;;;;;;;;;;14.54;53.97;96940.53;4973043;28;20008;-77
2023/03/22 00:27:05;;;;;;;;;;;;;;;14.46;54.13;96929.84;4990992;28;20017;-76
2023/03/22 00:29:30;;;;;;;;;;;;;;;14.58;54.06;96935.50;4953313;28;20374;-76
2023/03/22 00:31:56;;;;;;;;;;;;;;;14.50;54.14;96931.66;4989293;28;20468;-76
2023/03/22 00:34:21;;;;;;;;;;;;;;;14.50;54.20;96926.41;4971100;28;19981;-76
2023/03/22 00:36:47;;;;;;;;;;;;;;;14.34;54.65;96915.31;4989901;28;19922;-76
2023/03/22 00:39:12;;;;;;;;;;;;;;;14.50;54.14;96915.94;4986906;28;20005;-76
2023/03/22 00:41:37;;;;;;;;;;;;;;;14.54;54.38;96913.56;4988591;28;20326;-77
2023/03/22 00:44:03;;;;;;;;;;;;;;;14.55;53.69;96912.50;4987034;28;19957;-79
2023/03/22 00:46:28;;;;;;;;;;;;;;;14.66;53.56;96919.22;4988665;28;19973;-79
2023/03/22 00:48:54;;;;;;;;;;;;;;;14.60;53.82;96913.25;4956051;28;20350;-79
2023/03/22 00:51:19;;;;;;;;;;;;;;;14.57;54.03;96905.91;4971545;28;21278;-79
2023/03/22 00:53:48;;;;;;;;;;;;;;;14.56;54.13;96908.81;4983689;28;20378;-78
2023/03/22 00:56:14;;;;;;;;;;;;;;;14.68;53.82;96914.47;4988869;28;19925;-78
2023/03/22 00:58:39;;;;;;;;;;;;;;;14.65;53.74;96909.03;4986754;28;19932;-77
2023/03/22 01:01:06;;;;;;;;;;;;;;;14.61;53.76;96900.94;4980613;28;19921;-78
2023/03/22 01:03:32;;;;;;;;;;;;;;;14.52;54.13;96905.19;4970573;28;19918;-79
2023/03/22 01:05:57;;;;;;;;;;;;;;;14.46;54.44;96898.41;4956796;28;19929;-78
2023/03/22 01:08:22;;;;;;;;;;;;;;;14.40;54.52;96897.69;4987072;28;20372;-79
2023/03/22 01:10:48;;;;;;;;;;;;;;;14.48;54.12;96893.69;4972205;28;19922;-79
2023/03/22 01:13:13;;;;;;;;;;;;;;;14.48;53.92;96897.09;5002492;28;20288;-79
2023/03/22 01:15:40;;;;;;;;;;;;;;;14.39;54.39;96891.69;4989010;28;20440;-80
2023/03/22 01:18:06;;;;;;;;;;;;;;;14.33;54.48;96897.25;4971072;28;20385;-79
2023/03/22 01:20:31;;;;;;;;;;;;;;;14.47;54.19;96886.91;4971233;28;19917;-79
2023/03/22 01:22:57;;;;;;;;;;;;;;;14.45;54.13;96879.31;4989918;28;19928;-78
2023/03/22 01:25:22;;;;;;;;;;;;;;;14.55;53.93;96876.59;4987990;28;20377;-78
2023/03/22 01:27:47;;;;;;;;;;;;;;;14.56;54.13;96878.16;5004146;28;19973;-79
2023/03/22 01:30:12;;;;;;;;;;;;;;;14.55;53.84;96879.22;4982575;28;19924;-78
2023/03/22 01:32:38;;;;;;;;;;;;;;;14.57;53.95;96873.72;4971384;28;19918;-79
2023/03/22 01:35:04;;;;;;;;;;;;;;;14.63;53.78;96872.59;4967534;28;20037;-78
2023/03/22 01:37:29;;;;;;;;;;;;;;;14.66;53.85;96871.28;4988374;28;20016;-80
2023/03/22 01:39:55;;;;;;;;;;;;;;;14.65;53.79;96867.09;4986759;28;19921;-80
2023/03/22 01:42:21;;;;;;;;;;;;;;;14.59;53.76;96863.75;4987033;28;19926;-79
2023/03/22 01:45:05;;;;;;;;;;;;;;;14.64;53.70;96861.09;4987252;28;19926;-79
2023/03/22 01:47:30;;;;;;;;;;;;;;;14.66;53.57;96864.19;5001844;28;19924;-79
2023/03/22 01:49:55;;;;;;;;;;;;;;;14.78;53.21;96867.22;4987451;28;19929;-79
2023/03/22 01:52:21;;;;;;;;;;;;;;;14.70;53.49;96864.41;4988540;28;19999;-80
2023/03/22 01:54:46;;;;;;;;;;;;;;;14.67;53.81;96873.63;4970856;28;19928;-79
2023/03/22 01:57:12;;;;;;;;;;;;;;;14.69;53.88;96865.50;4987149;28;20400;-79
2023/03/22 01:59:38;;;;;;;;;;;;;;;14.61;54.02;96872.09;4984602;28;19921;-79
2023/03/22 02:02:03;;;;;;;;;;;;;;;14.69;53.77;96861.03;4987110;28;19921;-78
2023/03/22 02:04:33;;;;;;;;;;;;;;;14.67;53.65;96862.34;5046296;23;20369;-77
2023/03/22 02:07:08;;;;;;;;;;;;;;;14.65;53.73;96857.41;5084362;28;20294;-78
2023/03/22 02:09:41;;;;;;;;;;;;;;;14.61;53.94;96854.53;5041578;28;19917;-78
2023/03/22 02:12:21;;;;;;;;;;;;;;;14.65;54.00;96854.78;5078310;28;19920;-78
2023/03/22 02:14:49;;;;;;;;;;;;;;;14.58;53.89;96852.50;5068764;28;19924;-78
2023/03/22 02:17:35;;;;;;;;;;;;;;;14.66;53.91;96858.97;5085535;28;19970;-78
2023/03/22 02:20:09;;;;;;;;;;;;;;;14.67;53.91;96857.91;5062178;28;19921;-78
2023/03/22 02:22:48;;;;;;;;;;;;;;;14.66;53.85;96856.34;5068806;28;20460;-77
2023/03/22 02:25:32;;;;;;;;;;;;;;;14.65;53.98;96846.94;5025140;28;19917;-78
2023/03/22 02:28:01;;;;;;;;;;;;;;;14.70;53.66;96848.69;5067840;28;19917;-78
2023/03/22 02:30:29;;;;;;;;;;;;;;;14.60;53.90;96850.38;5066025;28;20449;-77
2023/03/22 02:32:54;;;;;;;;;;;;;;;14.60;53.74;96839.91;5067971;28;19920;-78
2023/03/22 02:35:23;;;;;;;;;;;;;;;14.67;53.55;96844.81;5063200;28;19951;-78
2023/03/22 02:37:51;;;;;;;;;;;;;;;14.59;53.80;96838.31;5050740;28;19967;-77
2023/03/22 02:40:21;;;;;;;;;;;;;;;14.62;53.60;96844.88;5047862;28;19990;-77
2023/03/22 02:42:56;;;;;;;;;;;;;;;14.60;53.55;96850.38;5047367;28;20341;-78
2023/03/22 02:45:33;;;;;;;;;;;;;;;14.63;53.40;96849.03;5064543;28;19917;-77
2023/03/22 02:48:09;;;;;;;;;;;;;;;14.66;53.69;96837.22;5063487;28;20374;-78
2023/03/22 02:50:34;;;;;;;;;;;;;;;14.60;53.94;96844.38;5082006;28;20398;-77
2023/03/22 02:53:08;;;;;;;;;;;;;;;14.53;53.94;96836.81;5062073;28;19916;-78
2023/03/22 02:55:40;;;;;;;;;;;;;;;14.57;54.03;96834.41;5060420;28;19916;-77
2023/03/22 02:58:08;;;;;;;;;;;;;;;14.60;53.98;96844.38;5046693;28;19968;-77
2023/03/22 03:00:33;;;;;;;;;;;;;;;14.57;53.93;96842.25;5066128;28;19916;-78
2023/03/22 03:03:00;;;;;;;;;;;;;;;14.54;54.27;96851.44;5045820;28;20296;-78
2023/03/22 03:05:26;;;;;;;;;;;;;;;14.56;53.92;96843.31;5045722;28;20351;-77
2023/03/22 03:07:53;;;;;;;;;;;;;;;14.50;53.95;96841.81;5033396;28;19923;-78
2023/03/22 03:10:18;;;;;;;;;;;;;;;14.55;54.11;96845.16;5064215;28;19920;-77
2023/03/22 03:12:44;;;;;;;;;;;;;;;14.48;54.52;96836.84;5065688;28;19916;-77
2023/03/22 03:15:17;;;;;;;;;;;;;;;14.42;54.50;96836.09;5031184;28;20066;-78
2023/03/22 03:18:01;;;;;;;;;;;;;;;14.40;54.46;96842.69;5066179;28;19917;-77
2023/03/22 03:20:37;;;;;;;;;;;;;;;14.42;54.38;96837.94;5061086;28;19924;-78
2023/03/22 03:23:06;;;;;;;;;;;;;;;14.49;54.15;96838.41;5064851;28;20427;-77
2023/03/22 03:25:57;;;;;;;;;;;;;;;14.56;53.52;96832.84;5064533;28;19921;-77
2023/03/22 03:28:37;;;;;;;;;;;;;;;14.53;53.72;96841.25;5042969;28;19920;-77
2023/03/22 03:31:08;;;;;;;;;;;;;;;14.60;53.70;96837.28;5049667;28;20311;-78
2023/03/22 03:33:34;;;;;;;;;;;;;;;14.52;53.94;96831.84;5067468;28;19917;-78
2023/03/22 03:36:09;;;;;;;;;;;;;;;14.50;54.00;96826.09;5050857;28;20339;-78
2023/03/22 03:38:35;;;;;;;;;;;;;;;14.37;54.16;96828.28;5067871;28;19920;-78
2023/03/22 03:41:02;;;;;;;;;;;;;;;14.47;53.67;96818.78;5067402;28;19920;-77
2023/03/22 03:43:27;;;;;;;;;;;;;;;14.48;53.57;96815.91;5038262;28;20390;-78
2023/03/22 03:45:53;;;;;;;;;;;;;;;14.36;53.74;96820.72;5068404;28;19916;-77
2023/03/22 03:48:19;;;;;;;;;;;;;;;14.28;54.16;96818.72;5069577;28;19923;-78
2023/03/22 03:50:45;;;;;;;;;;;;;;;14.30;53.90;96804.28;5054084;28;20383;-78
2023/03/22 03:53:10;;;;;;;;;;;;;;;14.25;53.88;96812.19;5070874;28;19920;-78
2023/03/22 03:55:36;;;;;;;;;;;;;;;14.07;54.18;96816.28;5038339;28;19916;-78
2023/03/22 03:58:01;;;;;;;;;;;;;;;14.10;53.89;96817.56;5053176;28;19920;-78
2023/03/22 04:00:27;;;;;;;;;;;;;;;14.05;53.58;96811.31;5050097;28;19924;-78
2023/03/22 04:02:52;;;;;;;;;;;;;;;14.07;53.80;96816.28;5086015;28;19920;-77
2023/03/22 04:05:17;;;;;;;;;;;;;;;14.00;53.93;96813.19;5053033;28;19917;-78
2023/03/22 04:07:42;;;;;;;;;;;;;;;13.97;54.19;96819.00;5068617;28;20379;-77
2023/03/22 04:10:08;;;;;;;;;;;;;;;13.81;54.34;96815.69;5051154;28;20043;-78
2023/03/22 04:12:33;;;;;;;;;;;;;;;13.76;54.51;96808.69;5070014;28;19924;-78
2023/03/22 04:14:59;;;;;;;;;;;;;;;13.64;54.68;96801.19;5035369;28;20432;-78
2023/03/22 04:17:25;;;;;;;;;;;;;;;13.58;54.86;96802.25;5049139;28;19931;-83
2023/03/22 04:19:52;;;;;;;;;;;;;;;13.60;55.04;96799.38;5057013;28;19928;-78
2023/03/22 04:22:17;;;;;;;;;;;;;;;13.55;54.93;96796.78;5070369;28;19924;-78
2023/03/22 04:24:48;;;;;;;;;;;;;;;13.47;55.18;96796.31;5048008;28;19943;-78
2023/03/22 04:27:14;;;;;;;;;;;;;;;13.47;55.17;96806.00;5034946;28;19923;-78
2023/03/22 04:29:39;;;;;;;;;;;;;;;13.43;55.60;96800.50;5052539;28;20302;-78
2023/03/22 04:32:05;;;;;;;;;;;;;;;13.39;55.79;96802.13;5034360;28;20310;-78
2023/03/22 04:34:30;;;;;;;;;;;;;;;13.32;56.41;96800.88;5068854;28;19916;-78
2023/03/22 04:36:56;;;;;;;;;;;;;;;13.40;55.92;96801.09;5035504;28;19920;-77
2023/03/22 04:39:21;;;;;;;;;;;;;;;13.57;55.70;96790.25;5049497;28;20003;-78
2023/03/22 04:41:46;;;;;;;;;;;;;;;13.57;56.12;96795.47;5067447;28;19931;-78
2023/03/22 04:44:11;;;;;;;;;;;;;;;13.61;56.42;96795.72;5064542;28;19917;-78
2023/03/22 04:46:37;;;;;;;;;;;;;;;13.63;56.64;96794.38;5052648;28;20684;-77
2023/03/22 04:49:03;;;;;;;;;;;;;;;13.65;55.91;96792.25;5066758;28;19925;-77
2023/03/22 04:51:29;;;;;;;;;;;;;;;13.74;56.12;96796.91;5052065;28;20339;-78
2023/03/22 04:53:54;;;;;;;;;;;;;;;13.85;55.60;96798.41;5068328;28;19978;-78
2023/03/22 04:56:20;;;;;;;;;;;;;;;13.76;55.87;96802.66;5067417;28;19963;-78
2023/03/22 04:58:45;;;;;;;;;;;;;;;13.86;55.48;96798.13;5064768;28;20403;-77
2023/03/22 05:01:12;;;;;;;;;;;;;;;13.82;55.46;96801.56;5050835;28;19924;-77
2023/03/22 05:03:37;;;;;;;;;;;;;;;13.62;56.10;96802.50;5051745;28;19931;-78
2023/03/22 05:06:05;;;;;;;;;;;;;;;13.83;55.59;96808.38;5067582;28;19920;-77
2023/03/22 05:08:30;;;;;;;;;;;;;;;13.86;55.52;96805.19;5076641;28;20423;-77
2023/03/22 05:10:56;;;;;;;;;;;;;;;13.83;55.79;96808.38;5046851;28;20026;-78
2023/03/22 05:13:22;;;;;;;;;;;;;;;13.93;55.78;96810.91;5046666;28;19917;-78
2023/03/22 05:15:50;;;;;;;;;;;;;;;13.92;55.38;96811.94;5068583;28;19916;-77
2023/03/22 05:18:16;;;;;;;;;;;;;;;13.98;55.36;96810.88;5050763;28;19920;-77
2023/03/22 05:20:42;;;;;;;;;;;;;;;14.09;55.21;96813.41;5067511;28;19920;-78
2023/03/22 05:23:08;;;;;;;;;;;;;;;13.96;55.62;96814.78;5034940;28;19924;-78
2023/03/22 05:25:34;;;;;;;;;;;;;;;14.01;55.26;96805.06;5067858;28;20025;-78
2023/03/22 05:28:02;;;;;;;;;;;;;;;13.99;55.42;96812.41;5028413;28;19931;-77
2023/03/22 05:30:28;;;;;;;;;;;;;;;13.92;55.76;96805.94;5045475;28;20011;-78
2023/03/22 05:32:58;;;;;;;;;;;;;;;13.93;55.75;96813.53;5036464;28;19999;-78
2023/03/22 05:35:24;;;;;;;;;;;;;;;13.95;55.96;96813.22;5052865;28;20375;-78
2023/03/22 05:37:50;;;;;;;;;;;;;;;13.92;55.92;96805.94;5069187;28;19947;-78
2023/03/22 05:40:16;;;;;;;;;;;;;;;14.08;55.54;96817.06;5052465;28;20136;-78
2023/03/22 05:42:41;;;;;;;;;;;;;;;13.89;55.98;96814.34;5053345;28;19923;-78
2023/03/22 05:45:07;;;;;;;;;;;;;;;14.05;55.68;96816.56;5064487;28;19947;-77
2023/03/22 05:47:32;;;;;;;;;;;;;;;14.10;55.92;96809.69;5065721;28;19916;-78
2023/03/22 05:49:58;;;;;;;;;;;;;;;14.17;55.80;96810.16;5050881;28;19916;-78
2023/03/22 05:52:23;;;;;;;;;;;;;;;14.15;55.68;96807.03;5032505;28;19979;-80
2023/03/22 05:54:48;;;;;;;;;;;;;;;14.03;56.31;96808.19;5034950;28;20461;-78
2023/03/22 05:57:13;;;;;;;;;;;;;;;14.12;55.77;96802.34;5050803;28;19920;-78
2023/03/22 05:59:39;;;;;;;;;;;;;;;14.16;56.04;96806.00;5048940;28;19931;-77
2023/03/22 06:02:04;;;;;;;;;;;;;;;14.11;56.09;96798.19;5031290;28;19917;-78
2023/03/22 06:04:29;;;;;;;;;;;;;;;14.12;56.02;96808.38;5047405;28;19931;-78
2023/03/22 06:06:55;;;;;;;;;;;;;;;14.18;56.20;96803.88;5065781;28;19920;-78
2023/03/22 06:09:20;;;;;;;;;;;;;;;14.17;56.27;96802.31;5032232;28;19971;-78
2023/03/22 06:11:45;;;;;;;;;;;;;;;14.17;55.89;96797.88;5046454;28;19920;-77
2023/03/22 06:14:11;;;;;;;;;;;;;;;14.26;56.03;96798.03;5032121;28;19958;-77
2023/03/22 06:16:36;;;;;;;;;;;;;;;14.09;56.22;96805.53;5049775;28;19924;-78
2023/03/22 06:19:01;;;;;;;;;;;;;;;14.19;56.02;96789.75;5065038;28;20526;-76
2023/03/22 06:21:26;;;;;;;;;;;;;;;14.26;55.90;96795.41;5066689;28;19925;-79
2023/03/22 06:23:52;;;;;;;;;;;;;;;14.37;55.75;96796.09;5052599;28;20398;-77
2023/03/22 06:26:17;;;;;;;;;;;;;;;14.00;57.04;96798.28;5082549;28;19954;-77
2023/03/22 06:28:42;;;;;;;;;;;;;;;14.02;57.00;96800.63;5049648;28;20303;-80
2023/03/22 06:31:08;;;;;;;;;;;;;;;14.18;55.95;96812.50;5064713;28;20006;-78
2023/03/22 06:33:36;;;;;;;;;;;;;;;14.24;56.32;96800.16;5064596;28;20406;-79
2023/03/22 06:36:02;;;;;;;;;;;;;;;14.10;57.29;96815.72;5050020;28;19917;-78
2023/03/22 06:38:27;;;;;;;;;;;;;;;14.15;56.81;96813.03;5046877;28;19995;-79
2023/03/22 06:40:53;;;;;;;;;;;;;;;14.38;55.82;96818.63;5046724;28;20433;-78
2023/03/22 06:43:18;;;;;;;;;;;;;;;14.30;56.23;96827.06;5048174;28;19924;-78
2023/03/22 06:45:46;;;;;;;;;;;;;;;14.41;55.80;96812.81;5050003;28;19924;-78
2023/03/22 06:48:12;;;;;;;;;;;;;;;14.55;55.06;96807.72;5067081;28;19916;-81
2023/03/22 06:50:38;;;;;;;;;;;;;;;14.59;55.05;96808.72;5063936;28;20453;-79
2023/03/22 06:53:03;;;;;;;;;;;;;;;14.57;54.94;96818.69;5047611;28;19953;-79
2023/03/22 06:55:32;;;;;;;;;;;;;;;14.44;55.58;96812.25;5048627;28;19942;-78
2023/03/22 06:57:58;;;;;;;;;;;;;;;14.63;55.21;96814.97;5050086;28;20130;-77
2023/03/22 07:00:23;;;;;;;;;;;;;;;14.72;54.71;96820.38;5045955;28;20287;-78
2023/03/22 07:02:48;;;;;;;;;;;;;;;14.67;54.09;96815.19;5064582;28;19924;-79
2023/03/22 07:05:14;;;;;;;;;;;;;;;14.74;54.21;96811.19;5048110;28;19924;-78
2023/03/22 07:07:39;;;;;;;;;;;;;;;14.83;54.01;96815.81;5064059;28;19917;-81
2023/03/22 07:10:06;;;;;;;;;;;;;;;14.80;53.41;96814.50;5049197;28;20001;-78
2023/03/22 07:12:32;;;;;;;;;;;;;;;14.61;54.39;96819.72;5060616;28;19920;-79
2023/03/22 07:14:57;;;;;;;;;;;;;;;14.77;54.11;96826.34;5033160;28;19966;-78
2023/03/22 07:17:22;;;;;;;;;;;;;;;14.81;53.79;96825.81;5065419;28;20786;-80
2023/03/22 07:19:47;;;;;;;;;;;;;;;14.89;53.69;96822.53;5065709;28;19921;-78
2023/03/22 07:22:13;;;;;;;;;;;;;;;14.92;53.72;96825.38;5049610;28;19944;-78
2023/03/22 07:24:38;;;;;;;;;;;;;;;15.00;53.62;96818.75;5047201;28;20359;-78
2023/03/22 07:27:03;;;;;;;;;;;;;;;14.75;54.56;96818.00;5062732;28;19916;-79
2023/03/22 07:29:29;;;;;;;;;;;;;;;15.08;53.75;96819.94;5030616;28;19974;-78
2023/03/22 07:31:54;;;;;;;;;;;;;;;15.00;53.96;96812.72;5062649;28;20318;-79
2023/03/22 07:34:20;;;;;;;;;;;;;;;15.16;53.33;96817.50;5081800;28;20345;-78
2023/03/22 07:36:45;;;;;;;;;;;;;;;15.19;53.26;96820.63;5051360;28;20402;-79
2023/03/22 07:39:10;;;;;;;;;;;;;;;15.37;52.45;96827.72;5032302;28;20300;-79
2023/03/22 07:41:35;;;;;;;;;;;;;;;15.49;52.38;96825.44;5067310;28;19923;-79
2023/03/22 07:44:01;;;;;;;;;;;;;;;15.39;52.88;96822.16;5067072;28;20039;-78
2023/03/22 07:46:26;;;;;;;;;;;;;;;15.40;52.88;96824.50;5038064;28;19920;-78
2023/03/22 07:48:51;;;;;;;;;;;;;;;15.63;51.81;96825.50;5069267;28;19917;-79
2023/03/22 07:51:18;;;;;;;;;;;;;;;15.64;52.00;96824.41;5038579;28;20427;-77
2023/03/22 07:53:43;;;;;;;;;;;;;;;15.69;52.24;96834.06;5017233;28;19924;-78
2023/03/22 07:56:08;;;;;;;;;;;;;;;15.60;51.75;96822.66;5064205;28;19966;-79
2023/03/22 07:58:34;;;;;;;;;;;;;;;15.82;51.33;96822.88;5030693;28;19921;-78
2023/03/22 08:01:02;;;;;;;;;;;;;;;15.36;52.24;96821.66;5050678;28;20288;-79
2023/03/22 08:03:28;;;;;;;;;;;;;;;15.80;52.34;96804.03;5038183;28;19974;-79
2023/03/22 08:05:53;;;;;;;;;;;;;;;16.16;50.88;96813.94;5047652;28;19939;-77
2023/03/22 08:08:19;;;;;;;;;;;;;;;16.38;50.42;96823.00;5072967;28;19927;-78
2023/03/22 08:10:48;;;;;;;;;;;;;;;16.16;51.15;96816.56;5023775;28;19925;-79
2023/03/22 08:13:13;;;;;;;;;;;;;;;16.32;50.71;96824.19;5045366;28;19917;-79
2023/03/22 08:15:39;;;;;;;;;;;;;;;15.93;51.49;96806.97;5064616;28;19924;-81
2023/03/22 08:18:04;;;;;;;;;;;;;;;16.14;51.72;96802.91;5049314;28;19917;-78
2023/03/22 08:20:29;;;;;;;;;;;;;;;16.21;50.73;96818.31;5030097;28;19920;-79
2023/03/22 08:22:55;;;;;;;;;;;;;;;16.08;51.13;96817.22;5065102;28;19975;-80
2023/03/22 08:25:20;;;;;;;;;;;;;;;16.24;51.09;96810.63;5025431;28;19991;-79
2023/03/22 08:27:46;;;;;;;;;;;;;;;16.27;51.08;96807.41;5061830;28;19924;-79
2023/03/22 08:30:11;;;;;;;;;;;;;;;16.37;50.98;96795.19;5046055;28;19916;-79
2023/03/22 08:32:36;;;;;;;;;;;;;;;16.36;51.37;96806.75;5050060;28;19920;-79
2023/03/22 08:35:03;;;;;;;;;;;;;;;16.66;50.27;96802.78;5050161;28;19917;-79
2023/03/22 08:37:29;;;;;;;;;;;;;;;17.33;48.53;96798.81;5032827;28;20011;-79
2023/03/22 08:39:54;;;;;;;;;;;;;;;17.54;48.97;96789.38;5050682;28;20070;-82
2023/03/22 08:42:19;;;;;;;;;;;;;;;17.57;47.98;96794.03;5032560;28;19924;-81
2023/03/22 08:44:45;;;;;;;;;;;;;;;17.35;47.35;96786.91;5065041;28;19931;-84
2023/03/22 08:47:11;;;;;;;;;;;;;;;17.66;47.32;96794.09;5033021;28;20338;-79
2023/03/22 08:49:36;;;;;;;;;;;;;;;18.05;46.50;96790.03;5051726;28;19926;-79
2023/03/22 08:52:01;;;;;;;;;;;;;;;18.09;46.53;96788.34;5066536;28;19916;-78
2023/03/22 08:54:31;;;;;;;;;;;;;;;18.24;45.82;96787.19;5042997;28;19924;-78
2023/03/22 08:56:57;;;;;;;;;;;;;;;17.69;46.59;96780.34;5064528;28;19951;-78
2023/03/22 08:59:23;;;;;;;;;;;;;;;18.11;46.03;96785.41;5033058;28;19920;-79
2023/03/22 09:01:48;;;;;;;;;;;;;;;18.20;45.61;96788.09;5067774;28;19916;-81
2023/03/22 09:04:13;;;;;;;;;;;;;;;17.96;46.76;96789.22;5027490;28;19932;-80
2023/03/22 09:06:41;;;;;;;;;;;;;;;17.20;47.54;96774.09;5067328;28;19923;-81
2023/03/22 09:09:07;;;;;;;;;;;;;;;17.16;47.12;96776.53;5050344;28;19926;-82
2023/03/22 09:11:32;;;;;;;;;;;;;;;17.23;47.24;96791.91;5032464;28;20398;-80
2023/03/22 09:13:57;;;;;;;;;;;;;;;17.47;46.93;96788.25;5063778;28;20364;-80
2023/03/22 09:16:22;;;;;;;;;;;;;;;17.08;49.05;96781.72;5068040;28;20323;-80
2023/03/22 09:18:48;;;;;;;;;;;;;;;17.05;49.07;96777.84;5049677;28;19931;-81
2023/03/22 09:21:13;;;;;;;;;;;;;;;17.16;48.96;96771.28;5067480;28;19928;-83
2023/03/22 09:23:39;;;;;;;;;;;;;;;16.86;49.52;96764.81;5031013;28;19924;-81
2023/03/22 09:26:05;;;;;;;;;;;;;;;17.05;48.92;96759.44;5034593;28;19952;-82
2023/03/22 09:28:31;;;;;;;;;;;;;;;17.10;48.91;96753.25;5067328;28;19916;-79
2023/03/22 09:31:00;;;;;;;;;;;;;;;17.59;48.76;96749.78;5067398;28;20382;-80
2023/03/22 09:33:25;;;;;;;;;;;;;;;17.83;47.52;96759.22;5061926;28;19970;-80
2023/03/22 09:35:52;;;;;;;;;;;;;;;17.71;46.14;96746.59;5060147;28;20274;-78
2023/03/22 09:38:17;;;;;;;;;;;;;;;17.98;45.63;96755.47;5044184;28;20330;-81
2023/03/22 09:40:45;;;;;;;;;;;;;;;17.92;46.18;96754.81;5051242;28;19967;-80
2023/03/22 09:43:11;;;;;;;;;;;;;;;17.67;47.00;96758.03;5066004;28;19916;-83
2023/03/22 09:45:40;;;;;;;;;;;;;;;17.85;47.19;96746.50;5081177;28;20382;-80
2023/03/22 09:48:10;;;;;;;;;;;;;;;17.84;46.97;96741.53;5032199;28;20457;-81
2023/03/22 09:50:37;;;;;;;;;;;;;;;18.52;46.10;96736.91;5048832;28;19917;-80
2023/03/22 09:53:02;;;;;;;;;;;;;;;18.34;45.01;96741.34;5081397;28;19927;-81
2023/03/22 09:55:29;;;;;;;;;;;;;;;18.42;46.17;96732.69;5041118;28;19917;-79
2023/03/22 09:58:06;;;;;;;;;;;;;;;17.84;46.50;96741.53;5069610;28;20019;-84
2023/03/22 10:01:10;;;;;;;;;;;;;;;18.62;45.45;96735.84;5069164;28;19921;-81
2023/03/22 10:03:37;;;;;;;;;;;;;;;19.04;44.56;96725.69;5004480;28;19921;-83
2023/03/22 10:06:07;;;;;;;;;;;;;;;19.26;43.62;96732.66;5024286;28;20308;-79
2023/03/22 10:08:39;;;;;;;;;;;;;;;19.40;43.48;96727.25;5044131;28;19921;-80
2023/03/22 10:11:06;;;;;;;;;;;;;;;19.11;44.27;96728.63;5065296;28;19916;-79
2023/03/22 10:13:44;;;;;;;;;;;;;;;19.32;43.10;96728.78;5051950;28;19916;-81
2023/03/22 10:16:10;;;;;;;;;;;;;;;19.31;43.19;96726.44;5069065;28;19922;-81
2023/03/22 10:18:37;;;;;;;;;;;;;;;19.25;41.83;96726.59;5049731;28;19963;-81
2023/03/22 10:21:06;;;;;;;;;;;;;;;19.39;42.81;96726.44;5052414;28;19916;-81
2023/03/22 10:23:37;;;;;;;;;;;;;;;19.07;42.58;96735.59;5030870;28;20387;-82
2023/03/22 10:26:03;;;;;;;;;;;;;;;18.96;41.58;96729.88;5044195;28;20140;-82
2023/03/22 10:28:39;;;;;;;;;;;;;;;18.64;41.79;96726.53;5051972;28;20442;-81
2023/03/22 10:31:04;;;;;;;;;;;;;;;18.29;43.46;96733.59;5086018;28;19916;-82
2023/03/22 10:33:37;;;;;;;;;;;;;;;18.70;43.86;96735.09;5031102;28;20295;-79
2023/03/22 10:36:03;;;;;;;;;;;;;;;18.83;42.83;96726.31;5068720;28;19916;-82
2023/03/22 10:38:28;;;;;;;;;;;;;;;18.66;42.74;96739.41;5051712;28;19939;-81
2023/03/22 10:40:54;;;;;;;;;;;;;;;18.47;42.39;96735.19;5085781;28;19966;-80
2023/03/22 10:43:23;;;;;;;;;;;;;;;18.18;43.89;96733.09;5068229;28;22257;-83
2023/03/22 10:45:49;;;;;;;;;;;;;;;18.31;43.01;96734.81;5068993;28;19917;-82
2023/03/22 10:48:20;;;;;;;;;;;;;;;18.21;42.81;96748.25;5051503;28;19963;-82
2023/03/22 10:50:45;;;;;;;;;;;;;;;18.26;43.35;96755.25;5067554;28;19916;-82
2023/03/22 10:53:11;;;;;;;;;;;;;;;18.49;42.51;96748.84;5030264;28;19927;-80
2023/03/22 10:55:40;;;;;;;;;;;;;;;18.32;42.98;96733.75;5051244;28;20312;-82
2023/03/22 10:58:24;;;;;;;;;;;;;;;18.39;42.63;96741.22;5035159;28;19917;-82
2023/03/22 11:00:55;;;;;;;;;;;;;;;18.11;43.31;96743.25;5085394;28;19999;-81
2023/03/22 11:03:39;;;;;;;;;;;;;;;18.36;42.99;96741.03;5050147;28;20039;-83
2023/03/22 11:06:05;;;;;;;;;;;;;;;18.33;43.22;96731.88;5084422;28;20332;-81
2023/03/22 11:08:38;;;;;;;;;;;;;;;18.53;43.24;96739.22;5044782;28;19924;-82
2023/03/22 11:11:06;;;;;;;;;;;;;;;18.63;42.37;96732.13;5051180;28;19917;-81
2023/03/22 11:13:32;;;;;;;;;;;;;;;18.98;42.08;96725.06;5048407;28;19916;-81
2023/03/22 11:15:57;;;;;;;;;;;;;;;19.57;42.42;96735.13;5068580;28;19921;-82
2023/03/22 11:18:23;;;;;;;;;;;;;;;19.73;40.05;96724.84;5043423;28;19920;-82
2023/03/22 11:20:56;;;;;;;;;;;;;;;20.28;38.86;96728.56;5034058;28;20450;-80
2023/03/22 11:23:21;;;;;;;;;;;;;;;20.40;38.21;96723.38;5033173;28;20405;-82
2023/03/22 11:25:47;;;;;;;;;;;;;;;20.31;38.40;96720.00;5035155;28;19940;-80
2023/03/22 11:28:17;;;;;;;;;;;;;;;20.67;37.77;96728.56;5051199;28;19916;-80
2023/03/22 11:30:56;;;;;;;;;;;;;;;20.75;36.95;96719.78;5032049;28;19958;-80
2023/03/22 11:33:23;;;;;;;;;;;;;;;21.11;37.00;96729.81;5033677;28;19916;-82
2023/03/22 11:35:53;;;;;;;;;;;;;;;21.27;36.46;96722.03;5066620;28;19928;-82
2023/03/22 11:38:24;;;;;;;;;;;;;;;21.41;36.44;96716.47;5033935;28;20318;-80
2023/03/22 11:40:53;;;;;;;;;;;;;;;21.32;36.04;96715.78;5034870;28;19920;-80
2023/03/22 11:43:19;;;;;;;;;;;;;;;20.94;37.09;96728.06;5067519;28;19957;-79
2023/03/22 11:45:45;;;;;;;;;;;;;;;20.75;37.69;96709.19;5065426;28;20379;-79
2023/03/22 11:48:17;;;;;;;;;;;;;;;20.98;37.27;96707.00;5034330;28;19964;-80
2023/03/22 11:50:43;;;;;;;;;;;;;;;21.24;37.18;96700.72;5068097;28;19966;-81
2023/03/22 11:53:13;;;;;;;;;;;;;;;21.60;36.15;96694.03;5049678;28;20037;-80
2023/03/22 11:55:38;;;;;;;;;;;;;;;21.76;36.15;96696.81;5051227;28;19917;-79
2023/03/22 11:58:04;;;;;;;;;;;;;;;21.72;35.13;96695.94;5050688;28;20317;-79
2023/03/22 12:00:30;;;;;;;;;;;;;;;21.79;35.13;96696.16;5050899;28;19921;-80
2023/03/22 12:03:13;;;;;;;;;;;;;;;20.94;36.07;96696.31;5033953;28;19916;-82
2023/03/22 12:05:39;;;;;;;;;;;;;;;20.82;35.81;96682.22;5063151;28;19921;-82
2023/03/22 12:08:14;;;;;;;;;;;;;;;20.84;34.94;96698.56;5053450;28;19916;-81
2023/03/22 12:10:40;;;;;;;;;;;;;;;20.47;36.39;96693.78;5071712;28;19920;-80
2023/03/22 12:13:16;;;;;;;;;;;;;;;20.20;37.24;96695.00;5053942;28;19916;-84
2023/03/22 12:15:47;;;;;;;;;;;;;;;20.08;36.67;96685.09;5034165;28;19923;-80
2023/03/22 12:18:14;;;;;;;;;;;;;;;19.60;38.92;96684.34;5045954;28;20372;-81
2023/03/22 12:20:48;;;;;;;;;;;;;;;19.68;37.64;96684.63;5055112;28;20395;-81
2023/03/22 12:23:15;;;;;;;;;;;;;;;20.00;37.88;96681.41;5053550;28;19920;-80
2023/03/22 12:25:43;;;;;;;;;;;;;;;19.64;38.27;96679.19;5068003;28;20382;-84
2023/03/22 12:28:11;;;;;;;;;;;;;;;19.79;38.42;96673.44;5071098;28;19970;-82
2023/03/22 12:30:38;;;;;;;;;;;;;;;20.14;38.37;96683.09;5034988;28;19916;-82
2023/03/22 12:33:05;;;;;;;;;;;;;;;20.28;36.94;96678.34;5037314;28;20351;-83
2023/03/22 12:35:32;;;;;;;;;;;;;;;20.30;37.55;96672.72;5037921;28;19917;-80
2023/03/22 12:37:58;;;;;;;;;;;;;;;20.46;37.66;96675.59;5054761;28;19921;-81
2023/03/22 12:40:23;;;;;;;;;;;;;;;20.42;36.89;96664.88;5052208;28;20277;-83
2023/03/22 12:42:51;;;;;;;;;;;;;;;20.90;36.04;96657.56;5051062;28;19944;-79
2023/03/22 12:45:18;;;;;;;;;;;;;;;20.82;37.82;96663.69;5053606;28;19927;-79
2023/03/22 12:47:47;;;;;;;;;;;;;;;20.90;36.91;96676.84;5069293;28;19925;-80